Time;durP1;ratioP1;P1;durP2;ratioP2;P2;SDS_P1;SDS_P2;PMS_P1;PMS_P2;Temp;Humidity;BMP_temperature;BMP_pressure;BME280_temperature;BME280_humidity;BME280_pressure;Samples;Min_cycle;Max_cycle;Signal;HPM_P1;HPM_P2
2023/08/23 00:02:25;;;;;;;6.65;2.08;;;16.10;99.90;;;;;;5003032;28;20046;-71
2023/08/23 00:04:51;;;;;;;3.10;1.75;;;16.10;99.90;;;;;;5024449;28;20025;-70
2023/08/23 00:07:16;;;;;;;6.03;2.47;;;16.10;99.90;;;;;;5022179;28;20489;-71
2023/08/23 00:09:42;;;;;;;7.32;2.97;;;16.00;99.90;;;;;;5001279;28;20030;-72
2023/08/23 00:12:07;;;;;;;4.50;2.53;;;16.10;99.90;;;;;;5005993;28;20168;-71
2023/08/23 00:14:34;;;;;;;3.78;1.75;;;16.10;99.90;;;;;;5018938;28;20034;-71
2023/08/23 00:16:59;;;;;;;6.53;2.65;;;16.10;99.90;;;;;;5011706;28;20089;-71
2023/08/23 00:19:25;;;;;;;4.40;2.50;;;16.10;99.90;;;;;;5005389;28;20570;-71
2023/08/23 00:21:50;;;;;;;7.78;2.60;;;16.00;99.90;;;;;;5027051;28;20034;-71
2023/08/23 00:24:18;;;;;;;7.35;2.75;;;16.00;99.90;;;;;;5023450;28;20365;-70
2023/08/23 00:26:44;;;;;;;4.53;2.53;;;16.00;99.90;;;;;;5022240;28;20033;-70
2023/08/23 00:29:09;;;;;;;3.80;2.35;;;16.00;99.90;;;;;;5015326;28;20041;-71
2023/08/23 00:31:35;;;;;;;6.97;2.80;;;15.90;99.90;;;;;;5013772;28;20493;-71
2023/08/23 00:34:00;;;;;;;3.72;2.42;;;16.00;99.90;;;;;;5019813;28;20121;-70
2023/08/23 00:36:26;;;;;;;3.53;2.20;;;15.90;99.90;;;;;;5022589;28;20029;-70
2023/08/23 00:38:52;;;;;;;4.57;2.70;;;15.90;99.90;;;;;;5012298;28;20061;-70
2023/08/23 00:41:17;;;;;;;4.93;2.75;;;15.90;99.90;;;;;;5013851;28;20041;-70
2023/08/23 00:43:43;;;;;;;5.70;2.63;;;15.90;99.90;;;;;;5009029;28;20473;-69
2023/08/23 00:46:08;;;;;;;4.97;2.65;;;15.90;99.90;;;;;;5018682;28;20042;-71
2023/08/23 00:48:34;;;;;;;6.35;3.20;;;15.90;99.90;;;;;;5022373;28;20124;-72
2023/08/23 00:51:00;;;;;;;6.78;3.38;;;15.80;99.90;;;;;;5001442;28;20038;-71
2023/08/23 00:53:25;;;;;;;5.53;3.20;;;15.90;99.90;;;;;;5023133;28;20037;-71
2023/08/23 00:55:51;;;;;;;6.88;3.20;;;15.80;99.90;;;;;;5005656;28;20037;-71
2023/08/23 00:58:18;;;;;;;5.18;2.85;;;15.80;99.90;;;;;;5021970;28;20087;-71
2023/08/23 01:00:44;;;;;;;5.45;3.00;;;15.80;99.90;;;;;;4998942;28;20044;-72
2023/08/23 01:03:10;;;;;;;6.55;3.63;;;15.80;99.90;;;;;;5004034;28;20033;-70
2023/08/23 01:06:11;;;;;;;9.55;3.25;;;15.80;99.90;;;;;;5000700;28;20045;-71
2023/08/23 01:08:40;;;;;;;5.93;2.80;;;15.80;99.90;;;;;;5020105;28;20038;-71
2023/08/23 01:11:16;;;;;;;7.55;3.65;;;15.80;99.90;;;;;;5015021;28;20117;-70
2023/08/23 01:14:02;;;;;;;5.97;2.88;;;15.80;99.90;;;;;;5025913;28;20083;-70
2023/08/23 01:16:29;;;;;;;6.05;3.30;;;15.80;99.90;;;;;;5010571;28;20432;-71
2023/08/23 01:18:56;;;;;;;8.50;3.35;;;15.80;99.90;;;;;;5005566;28;20030;-70
2023/08/23 01:21:31;;;;;;;6.05;3.15;;;15.80;99.90;;;;;;5004059;28;20448;-72
2023/08/23 01:23:57;;;;;;;8.68;3.75;;;15.80;99.90;;;;;;5026642;28;20045;-70
2023/08/23 01:26:22;;;;;;;6.70;3.10;;;15.80;99.90;;;;;;5026426;28;20040;-71
2023/08/23 01:28:50;;;;;;;7.53;3.20;;;15.80;99.90;;;;;;5019231;28;20719;-70
2023/08/23 01:31:20;;;;;;;5.07;2.80;;;15.80;99.90;;;;;;5021273;28;20038;-71
2023/08/23 01:34:00;;;;;;;6.78;4.20;;;15.80;99.90;;;;;;5012308;28;20037;-70
2023/08/23 01:36:30;;;;;;;7.33;3.37;;;15.90;99.90;;;;;;5009765;28;20038;-72
2023/08/23 01:38:58;;;;;;;7.35;3.47;;;15.80;99.90;;;;;;5013831;28;20033;-71
2023/08/23 01:41:24;;;;;;;9.02;4.20;;;15.80;99.90;;;;;;5026028;28;20749;-70
2023/08/23 01:43:51;;;;;;;8.30;3.40;;;15.80;99.90;;;;;;5022360;28;20037;-69
2023/08/23 01:46:17;;;;;;;8.10;3.72;;;15.80;99.90;;;;;;5025055;28;20025;-70
2023/08/23 01:48:42;;;;;;;6.38;3.40;;;15.80;99.90;;;;;;5020801;28;20531;-71
2023/08/23 01:51:08;;;;;;;6.45;3.45;;;15.80;99.90;;;;;;5024496;28;20045;-72
2023/08/23 01:53:34;;;;;;;8.68;3.40;;;15.80;99.90;;;;;;4996255;28;20033;-70
2023/08/23 01:56:00;;;;;;;6.65;3.42;;;15.80;99.90;;;;;;5030031;28;20029;-70
2023/08/23 01:58:26;;;;;;;6.70;3.72;;;15.80;99.90;;;;;;5016917;28;20222;-70
2023/08/23 02:00:52;;;;;;;6.30;3.40;;;15.80;99.90;;;;;;5017893;28;20033;-71
2023/08/23 02:03:18;;;;;;;10.30;4.38;;;15.80;99.90;;;;;;5016967;28;20745;-71
2023/08/23 02:05:44;;;;;;;7.15;3.60;;;15.70;99.90;;;;;;5020691;28;20044;-70
2023/08/23 02:08:09;;;;;;;10.35;4.07;;;15.70;99.90;;;;;;5004663;28;20433;-69
2023/08/23 02:10:35;;;;;;;6.40;3.30;;;15.70;99.90;;;;;;5006759;28;20053;-69
2023/08/23 02:13:04;;;;;;;11.05;3.70;;;15.70;99.90;;;;;;5023229;28;20025;-72
2023/08/23 02:15:30;;;;;;;8.18;3.88;;;15.60;99.90;;;;;;4996899;28;20113;-70
2023/08/23 02:17:55;;;;;;;6.75;3.70;;;15.70;99.90;;;;;;5026246;28;20084;-70
2023/08/23 02:20:21;;;;;;;10.63;3.40;;;15.60;99.90;;;;;;5012552;28;20057;-71
2023/08/23 02:22:47;;;;;;;6.28;3.40;;;15.60;99.90;;;;;;5018091;28;20040;-70
2023/08/23 02:25:12;;;;;;;8.98;3.35;;;15.60;99.90;;;;;;5024280;28;20388;-71
2023/08/23 02:27:38;;;;;;;7.72;3.55;;;15.60;99.90;;;;;;5024506;28;20155;-71
2023/08/23 02:30:04;;;;;;;6.05;3.60;;;15.60;99.90;;;;;;5008282;28;20120;-70
2023/08/23 02:32:30;;;;;;;6.07;3.05;;;15.60;99.90;;;;;;5022812;28;20556;-71
2023/08/23 02:34:55;;;;;;;6.70;3.13;;;15.60;99.90;;;;;;5017671;28;20034;-72
2023/08/23 02:37:21;;;;;;;8.52;3.10;;;15.60;99.90;;;;;;4998986;28;20083;-73
2023/08/23 02:39:46;;;;;;;7.85;4.10;;;15.60;99.90;;;;;;4999690;28;20056;-72
2023/08/23 02:42:12;;;;;;;6.63;3.08;;;15.60;99.90;;;;;;5013744;28;20034;-72
2023/08/23 02:44:38;;;;;;;8.60;3.88;;;15.70;99.90;;;;;;5020614;28;20095;-70
2023/08/23 02:47:03;;;;;;;6.28;3.00;;;15.70;99.90;;;;;;5022666;28;20104;-69
2023/08/23 02:49:29;;;;;;;9.10;4.32;;;15.70;99.90;;;;;;5005712;28;20071;-71
2023/08/23 02:51:54;;;;;;;7.65;3.50;;;15.70;99.90;;;;;;5017491;28;20026;-72
2023/08/23 02:54:20;;;;;;;9.85;3.78;;;15.70;99.90;;;;;;5020799;28;20132;-71
2023/08/23 02:56:46;;;;;;;5.30;2.95;;;15.70;99.90;;;;;;5012855;28;20030;-70
2023/08/23 02:59:11;;;;;;;6.57;3.45;;;15.70;99.90;;;;;;5024813;28;20052;-70
2023/08/23 03:01:37;;;;;;;14.25;3.38;;;15.80;99.90;;;;;;5013784;28;20573;-71
2023/08/23 03:04:02;;;;;;;6.80;3.03;;;15.80;99.90;;;;;;5016563;28;20040;-71
2023/08/23 03:06:28;;;;;;;4.93;2.65;;;15.80;99.90;;;;;;5023912;28;20125;-68
2023/08/23 03:08:53;;;;;;;8.57;3.00;;;15.80;99.90;;;;;;5020673;28;20073;-72
2023/08/23 03:11:19;;;;;;;6.25;3.50;;;15.80;99.90;;;;;;5000773;28;20128;-69
2023/08/23 03:13:45;;;;;;;5.50;3.00;;;15.80;99.90;;;;;;5014751;28;20493;-72
2023/08/23 03:16:10;;;;;;;5.85;3.30;;;15.80;99.90;;;;;;5020646;28;20064;-72
2023/08/23 03:18:37;;;;;;;6.50;3.03;;;15.70;99.90;;;;;;5013240;28;20587;-71
2023/08/23 03:21:02;;;;;;;5.38;3.13;;;15.70;99.90;;;;;;5017011;28;20064;-71
2023/08/23 03:23:28;;;;;;;7.55;2.90;;;15.70;99.90;;;;;;4998718;28;20555;-70
2023/08/23 03:25:53;;;;;;;7.20;3.38;;;15.70;99.90;;;;;;5002189;28;20057;-70
2023/08/23 03:28:19;;;;;;;7.05;3.28;;;15.70;99.90;;;;;;5016562;28;20048;-71
2023/08/23 03:30:45;;;;;;;6.53;3.35;;;15.80;99.90;;;;;;5014684;28;20084;-71
2023/08/23 03:33:10;;;;;;;7.20;3.47;;;15.80;99.90;;;;;;5022224;28;20048;-71
2023/08/23 03:35:36;;;;;;;7.57;3.78;;;15.80;99.90;;;;;;4998050;28;20037;-70
2023/08/23 03:38:01;;;;;;;7.82;3.10;;;15.80;99.90;;;;;;5017005;28;20040;-70
2023/08/23 03:40:28;;;;;;;6.28;3.38;;;15.80;99.90;;;;;;5004843;28;20021;-72
2023/08/23 03:42:53;;;;;;;7.40;3.58;;;15.80;99.90;;;;;;4995982;28;20421;-72
2023/08/23 03:45:19;;;;;;;14.40;4.85;;;15.80;99.90;;;;;;5028560;28;20032;-71
2023/08/23 03:47:44;;;;;;;10.13;4.30;;;15.80;99.90;;;;;;5012058;28;20120;-71
2023/08/23 03:50:12;;;;;;;10.43;4.43;;;15.80;99.90;;;;;;5016447;28;20034;-71
2023/08/23 03:52:37;;;;;;;10.40;4.70;;;15.80;99.90;;;;;;5019838;28;20469;-69
2023/08/23 03:55:03;;;;;;;13.45;4.80;;;15.70;99.90;;;;;;5016851;28;20030;-69
2023/08/23 03:57:29;;;;;;;10.60;4.65;;;15.70;99.90;;;;;;5002921;28;20037;-68
2023/08/23 03:59:54;;;;;;;10.27;4.28;;;15.70;99.90;;;;;;5008316;28;20030;-72
2023/08/23 04:02:20;;;;;;;9.63;4.47;;;15.70;99.90;;;;;;5016651;28;20057;-69
2023/08/23 04:04:46;;;;;;;12.10;5.30;;;15.70;99.90;;;;;;4997294;28;20056;-70
2023/08/23 04:07:15;;;;;;;12.98;5.03;;;15.70;99.90;;;;;;4999245;28;20041;-70
2023/08/23 04:09:40;;;;;;;9.73;4.60;;;15.70;99.90;;;;;;5001477;28;20037;-70
2023/08/23 04:12:06;;;;;;;11.68;5.20;;;15.70;99.90;;;;;;5018793;28;20037;-70
2023/08/23 04:14:32;;;;;;;11.82;5.20;;;15.70;99.90;;;;;;5017181;28;20025;-71
2023/08/23 04:16:59;;;;;;;12.52;5.07;;;15.60;99.90;;;;;;5017430;28;20036;-70
2023/08/23 04:19:25;;;;;;;9.90;4.93;;;15.60;99.90;;;;;;5022491;28;20110;-69
2023/08/23 04:21:51;;;;;;;11.30;4.70;;;15.60;99.90;;;;;;5016305;28;20821;-70
2023/08/23 04:24:16;;;;;;;11.38;5.43;;;15.60;99.90;;;;;;5016373;28;20034;-71
2023/08/23 04:26:42;;;;;;;13.93;4.80;;;15.60;99.90;;;;;;5014532;28;20543;-70
2023/08/23 04:29:07;;;;;;;12.63;4.78;;;15.60;99.90;;;;;;5023980;28;20046;-71
2023/08/23 04:31:33;;;;;;;9.65;4.00;;;15.60;99.90;;;;;;4992874;28;20505;-70
2023/08/23 04:33:59;;;;;;;10.52;4.80;;;15.60;99.90;;;;;;5005762;28;20044;-71
2023/08/23 04:36:24;;;;;;;12.20;4.45;;;15.60;99.90;;;;;;4997662;28;20037;-71
2023/08/23 04:38:50;;;;;;;9.07;4.65;;;15.60;99.90;;;;;;5019720;28;20561;-71
2023/08/23 04:41:15;;;;;;;11.43;4.72;;;15.60;99.90;;;;;;5019756;28;20054;-72
2023/08/23 04:43:41;;;;;;;12.48;4.93;;;15.60;99.90;;;;;;5001160;28;20037;-72
2023/08/23 04:46:07;;;;;;;12.40;4.20;;;15.70;99.90;;;;;;5005970;28;20029;-69
2023/08/23 04:48:32;;;;;;;11.13;4.97;;;15.70;99.90;;;;;;5020820;28;20036;-70
2023/08/23 04:50:58;;;;;;;9.27;4.40;;;15.70;99.90;;;;;;5023353;28;20068;-70
2023/08/23 04:53:24;;;;;;;9.63;4.50;;;15.70;99.90;;;;;;5026973;28;20025;-71
2023/08/23 04:55:50;;;;;;;9.43;4.57;;;15.70;99.90;;;;;;5000423;28;20037;-72
2023/08/23 04:58:16;;;;;;;7.88;4.43;;;15.70;99.90;;;;;;5002226;28;20456;-72
2023/08/23 05:00:44;;;;;;;8.57;4.28;;;15.70;99.90;;;;;;4992111;28;20065;-72
2023/08/23 05:03:10;;;;;;;9.00;4.00;;;15.80;99.90;;;;;;5023590;28;20037;-72
2023/08/23 05:05:35;;;;;;;10.48;4.10;;;15.70;99.90;;;;;;5027038;28;20045;-70
2023/08/23 05:08:01;;;;;;;11.07;4.28;;;15.80;99.90;;;;;;5022544;28;20057;-70
2023/08/23 05:10:27;;;;;;;7.88;3.40;;;15.80;99.90;;;;;;5027784;28;20072;-70
2023/08/23 05:12:55;;;;;;;13.00;4.35;;;15.90;99.90;;;;;;5028346;28;20500;-71
2023/08/23 05:15:22;;;;;;;9.63;4.07;;;15.90;99.90;;;;;;5029237;28;20034;-70
2023/08/23 05:17:47;;;;;;;9.98;3.75;;;15.90;99.90;;;;;;5027664;28;20059;-69
2023/08/23 05:20:14;;;;;;;8.85;3.58;;;16.00;99.90;;;;;;5027393;28;20037;-71
2023/08/23 05:22:40;;;;;;;7.55;3.70;;;16.00;99.90;;;;;;5009762;28;20747;-71
2023/08/23 05:25:06;;;;;;;6.63;3.45;;;16.00;99.90;;;;;;5009853;28;20143;-71
2023/08/23 05:27:31;;;;;;;9.65;4.22;;;16.00;99.90;;;;;;5027177;28;20242;-70
2023/08/23 05:29:59;;;;;;;12.18;3.97;;;16.00;99.90;;;;;;5009703;28;20034;-71
2023/08/23 05:32:25;;;;;;;8.77;3.33;;;16.00;99.90;;;;;;5007750;28;20025;-70
2023/08/23 05:34:50;;;;;;;9.55;4.13;;;16.00;99.90;;;;;;5027222;28;20029;-72
2023/08/23 05:37:16;;;;;;;7.50;2.97;;;16.10;99.90;;;;;;5027336;28;20041;-71
2023/08/23 05:39:41;;;;;;;9.38;3.30;;;16.10;99.90;;;;;;5027484;28;20410;-72
2023/08/23 05:42:07;;;;;;;8.38;4.20;;;16.10;99.90;;;;;;5027584;28;20052;-70
2023/08/23 05:44:32;;;;;;;6.60;2.95;;;16.10;99.90;;;;;;5026509;28;20088;-72
2023/08/23 05:46:58;;;;;;;9.95;3.85;;;16.20;99.90;;;;;;5008213;28;20042;-71
2023/08/23 05:49:23;;;;;;;6.13;3.17;;;16.20;99.90;;;;;;5027205;28;20040;-69
2023/08/23 05:51:50;;;;;;;10.90;3.25;;;16.30;99.90;;;;;;5008758;28;20211;-70
2023/08/23 05:54:15;;;;;;;8.88;3.67;;;16.40;99.90;;;;;;5028385;28;20029;-70
2023/08/23 05:56:41;;;;;;;9.02;3.88;;;16.40;99.90;;;;;;5025987;28;20044;-72
2023/08/23 05:59:06;;;;;;;6.63;3.10;;;16.50;99.90;;;;;;5022545;28;20029;-71
2023/08/23 06:01:32;;;;;;;11.73;3.78;;;16.50;99.90;;;;;;5023444;28;20021;-70
2023/08/23 06:03:58;;;;;;;5.30;2.92;;;16.60;99.90;;;;;;5009479;28;20524;-71
2023/08/23 06:06:23;;;;;;;8.13;3.22;;;16.60;99.90;;;;;;5026918;28;21748;-72
2023/08/23 06:08:49;;;;;;;5.78;3.47;;;16.70;99.90;;;;;;5025876;28;20445;-72
2023/08/23 06:11:14;;;;;;;8.25;3.88;;;16.80;99.90;;;;;;5027588;28;20037;-72
2023/08/23 06:13:42;;;;;;;8.57;3.20;;;16.90;99.90;;;;;;5025888;28;20037;-72
2023/08/23 06:16:08;;;;;;;8.38;3.80;;;16.90;99.90;;;;;;5026447;28;20037;-71
2023/08/23 06:18:34;;;;;;;10.77;3.72;;;17.10;99.90;;;;;;5025914;28;20492;-72
2023/08/23 06:20:59;;;;;;;13.80;4.10;;;17.20;99.90;;;;;;5008748;28;20037;-71
2023/08/23 06:23:25;;;;;;;10.40;3.85;;;17.30;99.90;;;;;;5008557;28;20069;-72
2023/08/23 06:25:58;;;;;;;8.40;3.60;;;17.40;99.90;;;;;;5026247;28;20044;-71
2023/08/23 06:28:23;;;;;;;8.10;3.83;;;17.70;99.90;;;;;;5009748;28;20041;-70
2023/08/23 06:30:49;;;;;;;8.23;3.80;;;17.90;99.90;;;;;;5027284;28;20033;-71
2023/08/23 06:33:15;;;;;;;7.47;4.00;;;18.40;99.90;;;;;;5026815;28;20041;-70
2023/08/23 06:35:40;;;;;;;6.45;3.03;;;18.90;99.90;;;;;;5026113;28;20723;-71
2023/08/23 06:38:06;;;;;;;7.38;3.42;;;19.40;99.90;;;;;;5026199;28;20041;-72
2023/08/23 06:40:31;;;;;;;5.07;2.72;;;20.20;99.90;;;;;;5026098;28;20079;-71
2023/08/23 06:42:57;;;;;;;10.05;3.50;;;21.10;99.90;;;;;;5026130;28;20045;-71
2023/08/23 06:45:22;;;;;;;7.40;3.20;;;22.00;99.90;;;;;;5025912;28;20106;-70
2023/08/23 06:47:49;;;;;;;5.47;2.72;;;22.70;99.90;;;;;;5025737;28;20037;-70
2023/08/23 06:50:15;;;;;;;7.13;2.70;;;23.20;99.90;;;;;;5026020;28;20053;-72
2023/08/23 06:52:40;;;;;;;9.70;2.75;;;23.90;99.90;;;;;;5025567;28;20065;-73
2023/08/23 06:55:06;;;;;;;7.68;2.72;;;24.80;99.90;;;;;;5026329;28;20507;-71
2023/08/23 06:57:32;;;;;;;11.50;3.70;;;25.60;99.90;;;;;;5025489;28;20405;-72
2023/08/23 06:59:58;;;;;;;7.07;3.65;;;26.40;99.90;;;;;;5025210;28;20033;-71
2023/08/23 07:02:27;;;;;;;7.53;4.20;;;27.20;99.90;;;;;;5023528;28;20037;-71
2023/08/23 07:04:52;;;;;;;7.93;4.22;;;27.50;99.90;;;;;;5026378;28;20504;-71
2023/08/23 07:07:21;;;;;;;9.02;5.13;;;27.60;99.90;;;;;;5008114;28;20057;-71
2023/08/23 07:09:48;;;;;;;7.38;3.95;;;27.40;99.90;;;;;;5007563;28;20480;-71
2023/08/23 07:12:13;;;;;;;8.35;4.63;;;27.20;99.90;;;;;;5025628;28;20365;-73
2023/08/23 07:14:39;;;;;;;10.43;4.57;;;26.40;99.90;;;;;;5025416;28;20075;-71
2023/08/23 07:17:05;;;;;;;7.57;3.90;;;25.70;99.90;;;;;;5010208;28;20025;-71
2023/08/23 07:19:30;;;;;;;6.28;3.15;;;24.90;99.90;;;;;;5025793;28;20556;-71
2023/08/23 07:21:58;;;;;;;9.68;4.15;;;24.40;99.90;;;;;;5015754;28;20064;-71
2023/08/23 07:24:23;;;;;;;6.50;3.47;;;23.80;99.90;;;;;;5022268;28;20095;-72
2023/08/23 07:26:49;;;;;;;7.95;3.72;;;23.30;99.90;;;;;;5020822;28;20041;-71
2023/08/23 07:29:16;;;;;;;8.65;3.58;;;23.00;99.90;;;;;;5021968;28;20038;-71
2023/08/23 07:31:46;;;;;;;5.45;3.20;;;22.70;99.90;;;;;;5003501;28;20038;-72
2023/08/23 07:34:12;;;;;;;8.40;3.25;;;22.50;99.90;;;;;;5005908;28;20041;-71
2023/08/23 07:36:37;;;;;;;4.25;2.63;;;22.30;99.90;;;;;;5024163;28;20084;-72
2023/08/23 07:39:03;;;;;;;6.43;3.42;;;22.20;99.90;;;;;;5007922;28;20382;-71
2023/08/23 07:41:29;;;;;;;10.40;3.42;;;22.00;99.90;;;;;;5024761;28;20049;-71
2023/08/23 07:43:54;;;;;;;13.13;3.47;;;21.90;99.90;;;;;;5007512;28;20072;-71
2023/08/23 07:46:20;;;;;;;8.23;3.65;;;21.90;99.90;;;;;;5007703;28;20125;-71
2023/08/23 07:48:45;;;;;;;6.70;3.42;;;21.80;99.90;;;;;;5024911;28;20037;-70
2023/08/23 07:51:11;;;;;;;7.80;2.95;;;21.80;99.90;;;;;;5019278;28;20050;-72
2023/08/23 07:53:37;;;;;;;7.57;3.72;;;21.80;99.90;;;;;;5000755;28;20037;-70
2023/08/23 07:56:03;;;;;;;7.75;3.33;;;21.70;99.90;;;;;;5021838;28;20044;-72
2023/08/23 07:58:29;;;;;;;4.80;2.90;;;21.60;99.90;;;;;;5018483;28;20026;-72
2023/08/23 08:00:54;;;;;;;5.03;2.83;;;21.70;99.90;;;;;;5000930;28;20082;-71
2023/08/23 08:03:20;;;;;;;8.85;3.10;;;21.60;99.90;;;;;;5006733;28;20091;-71
2023/08/23 08:05:46;;;;;;;9.25;3.45;;;21.60;99.90;;;;;;5025017;28;20477;-71
2023/08/23 08:08:12;;;;;;;6.25;2.78;;;21.60;99.90;;;;;;5024487;28;20032;-71
2023/08/23 08:10:38;;;;;;;8.65;3.50;;;21.70;99.90;;;;;;5011100;28;20041;-72
2023/08/23 08:13:04;;;;;;;7.00;2.95;;;21.80;99.90;;;;;;5029969;28;20481;-71
2023/08/23 08:15:31;;;;;;;4.70;2.28;;;21.80;99.90;;;;;;5029435;28;20026;-72
2023/08/23 08:17:57;;;;;;;7.07;2.67;;;21.80;99.90;;;;;;5013732;28;20098;-72
2023/08/23 08:20:24;;;;;;;9.05;2.80;;;21.90;99.90;;;;;;5012096;28;20045;-73
2023/08/23 08:22:51;;;;;;;5.82;3.55;;;22.00;99.90;;;;;;5026435;28;20388;-71
2023/08/23 08:25:16;;;;;;;12.57;3.90;;;22.10;99.90;;;;;;5027128;28;20040;-71
2023/08/23 08:27:42;;;;;;;6.53;3.05;;;22.10;99.90;;;;;;5027576;28;20060;-70
2023/08/23 08:30:08;;;;;;;9.20;3.50;;;22.20;99.90;;;;;;5028872;28;20134;-70
2023/08/23 08:32:33;;;;;;;7.22;2.88;;;22.20;99.90;;;;;;5027214;28;20699;-70
2023/08/23 08:35:00;;;;;;;7.25;3.67;;;22.30;99.90;;;;;;5011288;28;20033;-71
2023/08/23 08:37:26;;;;;;;7.35;3.30;;;22.40;99.90;;;;;;5027543;28;20038;-70
2023/08/23 08:39:51;;;;;;;7.45;3.85;;;22.40;99.90;;;;;;5010858;28;20152;-70
2023/08/23 08:42:17;;;;;;;6.75;3.40;;;22.40;99.90;;;;;;5010833;28;20382;-71
2023/08/23 08:44:47;;;;;;;8.05;3.47;;;22.50;99.90;;;;;;5027373;28;20045;-73
2023/08/23 08:47:13;;;;;;;7.53;3.88;;;22.60;99.90;;;;;;5028184;28;20022;-71
2023/08/23 08:49:39;;;;;;;9.65;3.92;;;22.80;99.90;;;;;;5027149;28;20037;-71
2023/08/23 08:52:05;;;;;;;12.35;3.70;;;22.90;99.90;;;;;;5028361;28;20580;-70
2023/08/23 08:54:33;;;;;;;7.30;3.17;;;22.90;99.90;;;;;;5027723;28;20036;-71
2023/08/23 08:57:00;;;;;;;7.28;3.40;;;23.10;99.90;;;;;;5026206;28;20036;-70
2023/08/23 08:59:26;;;;;;;10.30;3.30;;;23.10;99.90;;;;;;5026202;28;20100;-70
2023/08/23 09:01:54;;;;;;;6.88;3.30;;;23.20;99.90;;;;;;5008132;28;20109;-70
2023/08/23 09:04:20;;;;;;;6.78;2.83;;;23.20;99.90;;;;;;5028263;28;20123;-70
2023/08/23 09:06:46;;;;;;;10.40;3.67;;;23.20;99.90;;;;;;5026148;28;20053;-71
2023/08/23 09:09:12;;;;;;;9.27;3.42;;;23.30;99.90;;;;;;5027762;28;20030;-70
2023/08/23 09:11:38;;;;;;;6.82;3.08;;;23.30;99.90;;;;;;5026290;28;20037;-70
2023/08/23 09:14:18;;;;;;;12.05;3.67;;;23.40;99.90;;;;;;5026447;28;20033;-71
2023/08/23 09:16:46;;;;;;;7.68;3.30;;;23.50;99.90;;;;;;5026681;28;20504;-71
2023/08/23 09:19:12;;;;;;;8.95;2.85;;;23.50;99.90;;;;;;5009829;28;20034;-71
2023/08/23 09:21:51;;;;;;;5.57;2.90;;;23.60;99.90;;;;;;5017066;28;20398;-71
2023/08/23 09:24:18;;;;;;;7.82;2.85;;;23.70;99.90;;;;;;5027866;28;20061;-72
2023/08/23 09:26:44;;;;;;;10.27;3.15;;;23.80;99.90;;;;;;5026571;28;20049;-71
2023/08/23 09:29:11;;;;;;;8.20;3.30;;;23.80;99.90;;;;;;5027444;28;20042;-71
2023/08/23 09:31:36;;;;;;;12.70;3.83;;;23.90;99.90;;;;;;5023271;28;20413;-73
2023/08/23 09:34:03;;;;;;;8.50;4.40;;;24.10;99.90;;;;;;5009841;28;20041;-70
2023/08/23 09:36:30;;;;;;;10.05;3.25;;;24.30;99.90;;;;;;5008947;28;20029;-71
2023/08/23 09:38:59;;;;;;;8.65;3.40;;;24.30;99.90;;;;;;5026572;28;20037;-71
2023/08/23 09:41:25;;;;;;;8.13;4.65;;;24.40;99.90;;;;;;5027042;28;20493;-72
2023/08/23 09:43:53;;;;;;;10.27;4.18;;;24.60;99.90;;;;;;5026753;28;20049;-72
2023/08/23 09:46:25;;;;;;;9.57;3.33;;;24.60;99.90;;;;;;5009933;28;20033;-71
2023/08/23 09:48:54;;;;;;;11.23;4.53;;;24.60;99.90;;;;;;5004883;28;20042;-69
2023/08/23 09:51:24;;;;;;;7.75;3.72;;;24.60;99.90;;;;;;5029372;28;20552;-69
2023/08/23 09:53:54;;;;;;;8.77;3.42;;;24.60;99.90;;;;;;5027144;28;20497;-70
2023/08/23 09:56:20;;;;;;;;;;;24.60;99.90;;;;;;5010131;28;20204;-71
2023/08/23 09:58:47;;;;;;;7.13;3.20;;;24.50;99.90;;;;;;5019215;28;20004;-70
2023/08/23 10:01:15;;;;;;;10.40;3.33;;;24.60;99.90;;;;;;5024685;28;20028;-71
2023/08/23 10:03:41;;;;;;;9.30;3.05;;;24.60;99.90;;;;;;5026111;28;20060;-70
2023/08/23 10:06:08;;;;;;;4.90;2.55;;;24.60;99.90;;;;;;5002213;28;20041;-70
2023/08/23 10:08:35;;;;;;;6.40;3.08;;;24.60;99.90;;;;;;5022619;28;20037;-71
2023/08/23 10:11:01;;;;;;;8.02;2.30;;;24.80;99.90;;;;;;5025404;28;20102;-72
2023/08/23 10:13:29;;;;;;;6.53;3.25;;;24.80;99.90;;;;;;5023849;28;20084;-71
2023/08/23 10:15:56;;;;;;;4.55;2.28;;;24.80;99.90;;;;;;5002685;28;20086;-71
2023/08/23 10:18:24;;;;;;;6.53;2.60;;;24.80;99.90;;;;;;5005421;28;20030;-71
2023/08/23 10:20:51;;;;;;;6.57;3.42;;;24.90;99.90;;;;;;5025601;28;20025;-71
2023/08/23 10:23:18;;;;;;;10.02;3.28;;;25.10;99.90;;;;;;5026723;28;20551;-72
2023/08/23 10:25:46;;;;;;;4.78;2.38;;;25.10;99.90;;;;;;5017671;28;20341;-70
2023/08/23 10:28:18;;;;;;;4.15;2.42;;;25.10;99.90;;;;;;5025617;28;20041;-71
2023/08/23 10:30:48;;;;;;;4.97;2.65;;;25.10;99.90;;;;;;5003307;28;20083;-70
2023/08/23 10:33:15;;;;;;;8.13;2.65;;;25.10;99.90;;;;;;5021867;28;20030;-70
2023/08/23 10:35:42;;;;;;;9.70;2.88;;;25.20;99.90;;;;;;5007481;28;20045;-72
2023/08/23 10:38:08;;;;;;;7.50;3.25;;;25.30;99.90;;;;;;5007754;28;20037;-70
2023/08/23 10:40:36;;;;;;;7.47;2.03;;;25.40;99.90;;;;;;5007116;28;20641;-70
2023/08/23 10:43:17;;;;;;;7.22;1.92;;;25.30;99.90;;;;;;5026872;28;20030;-72
2023/08/23 10:45:56;;;;;;;6.22;1.52;;;25.40;99.90;;;;;;5003566;28;20497;-70
2023/08/23 10:48:23;;;;;;;4.22;1.90;;;25.40;99.90;;;;;;5005482;28;20064;-71
2023/08/23 10:50:49;;;;;;;5.35;2.08;;;25.40;99.90;;;;;;5006527;28;20052;-70
2023/08/23 10:53:18;;;;;;;3.28;1.60;;;25.40;99.90;;;;;;5024618;28;20097;-70
2023/08/23 10:55:44;;;;;;;6.05;2.53;;;25.40;99.90;;;;;;5006850;28;20164;-70
2023/08/23 10:58:12;;;;;;;4.97;1.13;;;25.50;99.90;;;;;;5021477;28;20049;-70
2023/08/23 11:00:37;;;;;;;3.10;1.45;;;25.40;99.90;;;;;;5023643;28;20061;-72
2023/08/23 11:03:04;;;;;;;3.92;1.95;;;25.50;99.90;;;;;;5004982;28;20494;-72
2023/08/23 11:05:30;;;;;;;7.05;1.40;;;25.60;99.90;;;;;;5006267;28;20033;-71
2023/08/23 11:07:59;;;;;;;1.80;0.60;;;25.50;99.90;;;;;;5007170;28;20032;-71
2023/08/23 11:10:25;;;;;;;5.00;1.20;;;25.60;99.90;;;;;;5017534;28;20041;-71
2023/08/23 11:12:51;;;;;;;1.67;0.50;;;25.70;99.90;;;;;;5006636;28;20025;-71
2023/08/23 11:15:17;;;;;;;3.92;0.77;;;25.70;99.90;;;;;;5024895;28;20053;-71
2023/08/23 11:17:43;;;;;;;3.33;0.80;;;25.70;99.90;;;;;;5024488;28;20060;-70
2023/08/23 11:20:10;;;;;;;4.90;0.75;;;25.60;99.90;;;;;;5026333;28;20065;-71
2023/08/23 11:22:36;;;;;;;3.58;1.00;;;25.40;99.90;;;;;;5027401;28;20068;-71
2023/08/23 11:25:02;;;;;;;5.68;1.38;;;25.40;99.90;;;;;;5010274;28;20116;-70
2023/08/23 11:27:28;;;;;;;7.57;1.35;;;25.30;99.90;;;;;;5006541;28;20116;-72
2023/08/23 11:29:58;;;;;;;3.03;1.23;;;25.30;99.90;;;;;;5026524;28;20044;-70
2023/08/23 11:32:23;;;;;;;3.00;1.00;;;25.30;99.90;;;;;;5021600;28;20026;-71
2023/08/23 11:34:49;;;;;;;4.07;0.95;;;25.40;99.90;;;;;;5025299;28;20131;-71
2023/08/23 11:37:15;;;;;;;3.08;1.10;;;25.50;99.90;;;;;;5025941;28;20045;-71
2023/08/23 11:39:40;;;;;;;4.60;0.90;;;25.60;99.90;;;;;;5006577;28;20037;-72
2023/08/23 11:42:06;;;;;;;1.80;0.77;;;25.80;99.90;;;;;;5025322;28;20552;-70
2023/08/23 11:44:32;;;;;;;3.08;0.93;;;25.80;99.90;;;;;;5027014;28;20112;-75
2023/08/23 11:46:58;;;;;;;2.85;0.85;;;25.90;99.90;;;;;;5029361;28;20030;-70
2023/08/23 11:49:24;;;;;;;2.78;1.00;;;25.80;99.90;;;;;;5028584;28;20034;-71
2023/08/23 11:51:50;;;;;;;2.67;0.70;;;25.80;99.90;;;;;;5027419;28;20095;-72
2023/08/23 11:54:17;;;;;;;3.65;0.80;;;25.70;99.90;;;;;;5029754;28;20033;-71
2023/08/23 11:56:44;;;;;;;3.67;1.15;;;25.60;99.90;;;;;;5028316;28;20145;-71
2023/08/23 11:59:11;;;;;;;4.65;1.00;;;25.60;99.90;;;;;;5010352;28;20026;-71
2023/08/23 12:01:38;;;;;;;3.30;0.50;;;25.50;99.90;;;;;;5026802;28;20251;-70
2023/08/23 12:04:06;;;;;;;3.05;0.80;;;25.40;99.90;;;;;;5011615;28;20112;-70
2023/08/23 12:06:32;;;;;;;4.20;1.10;;;25.30;99.90;;;;;;5027995;28;20143;-75
2023/08/23 12:08:58;;;;;;;4.28;0.63;;;25.20;99.90;;;;;;5029503;28;20038;-71
2023/08/23 12:11:23;;;;;;;2.75;0.80;;;25.00;99.90;;;;;;5010937;28;20029;-71
2023/08/23 12:13:49;;;;;;;3.10;0.60;;;24.90;99.90;;;;;;5028800;28;20328;-71
2023/08/23 12:16:15;;;;;;;2.88;0.80;;;24.90;99.90;;;;;;5028809;28;20045;-70
2023/08/23 12:18:41;;;;;;;4.20;1.42;;;24.90;99.90;;;;;;5029237;28;20096;-69
2023/08/23 12:21:07;;;;;;;4.55;1.13;;;25.00;99.90;;;;;;5030937;28;20026;-72
2023/08/23 12:23:32;;;;;;;2.20;1.02;;;25.00;99.90;;;;;;5029546;28;20378;-71
2023/08/23 12:25:58;;;;;;;3.47;1.52;;;25.00;99.90;;;;;;5010788;28;20037;-70
2023/08/23 12:28:23;;;;;;;3.03;1.30;;;25.20;99.90;;;;;;5028216;28;20522;-70
2023/08/23 12:30:49;;;;;;;3.65;1.08;;;25.30;99.90;;;;;;5010169;28;20057;-70
2023/08/23 12:33:14;;;;;;;4.28;1.27;;;25.40;99.90;;;;;;5024265;28;20030;-72
2023/08/23 12:35:40;;;;;;;3.95;1.30;;;25.60;99.90;;;;;;5027919;28;20044;-70
2023/08/23 12:38:06;;;;;;;5.82;1.25;;;25.80;99.90;;;;;;5028928;28;20043;-70
2023/08/23 12:40:31;;;;;;;4.53;1.17;;;25.80;99.90;;;;;;5010517;28;20042;-71
2023/08/23 12:42:57;;;;;;;1.40;0.95;;;25.80;99.90;;;;;;5028425;28;20052;-70